Truckee Tahoe Airport
KTRK : now visible

Airfield :











YOU CAN JOIN US ON...

 
LOGIN :

Register | Disclaimer

   EN    FR    IT 

 









Legend :    VFR   Marginal VFR   IFR   Intensive IFR   Very Intensive IFR
Visi :
Ceiling :
>= 8 km
>= 3000ft
5 to 8 km
1000 to 3000 ft
1500m to 5 km
500 to 1000 ft
800 to 1500m
200 to 500 ft
< 800m
< 200 ft
Symbols :   Thunderstorms  Fog  Heavy snow  Heavy precipitations  Wind > 20 kt






- Airport Elevation : 5900 ft


KTRK - Truckee Tahoe

CURRENT METAR :
  • 231235Z AUTO 00000KT 10SM CLR M08/M10 A3022 RMK AO2

EXPIRED METARs :
  • 231215Z AUTO 00000KT 10SM CLR M06/M08 A3022 RMK AO2
  • 231155Z AUTO 00000KT 10SM CLR M05/M08 A3020 RMK AO2
  • 231135Z AUTO 00000KT 10SM CLR M06/M08 A3019 RMK AO2
  • 231115Z AUTO 00000KT 10SM CLR M07/M10 A3019 RMK AO2
  • 231055Z AUTO 09005KT 10SM CLR M06/M08 A3019 RMK AO2
  • 231035Z AUTO 29003KT 10SM CLR M05/M07 A3018 RMK AO2
  • 231015Z AUTO 00000KT 10SM CLR M06/M07 A3018 RMK AO2
  • 230955Z AUTO 13003KT 10SM CLR M07/M09 A3018 RMK AO2

TAF KTRK
Valid from the 23 at 12:00 until the 24 at 12:00 UTC


231155Z 2312/2412 VRB03KT P6SM FEW200
FM232000 27008G16KT P6SM FEW070 SCT180
FM240100 30005KT P6SM FEW080 SCT180
FM240300 VRB03KT P6SM FEW070 SCT200



MET'MAP, your aeronautical weather chart ! - Copyright ORBIFLY December 2007 - Disclaimer

ORBIFLY MET'MAP TEAM :

Programming & Development : Alexandra Zaïnal
Concept & original design : Baudouin d'Aumeries
Assistance for programming : Marc-Olivier Méhu
Technical & hardware support : Manuel Goepfert

Contact : metmap@orbifly.com




SOURCES & CREDITS :

   NOAA       Earth
Advisory